Time;durP1;ratioP1;P1;durP2;ratioP2;P2;SDS_P1;SDS_P2;PMS_P1;PMS_P2;Temp;Humidity;BMP_temperature;BMP_pressure;BME280_temperature;BME280_humidity;BME280_pressure;Samples;Min_cycle;Max_cycle;Signal;HPM_P1;HPM_P2
2023/07/10 00:00:42;;;;;;;8.93;6.03;;;;;;;;;;4400012;32;65903;-59
2023/07/10 00:03:28;;;;;;;9.13;5.62;;;;;;;;;;4387703;32;68698;-60
2023/07/10 00:06:18;;;;;;;6.55;5.07;;;;;;;;;;4388215;32;58798;-60
2023/07/10 00:09:06;;;;;;;7.00;4.93;;;;;;;;;;4366570;32;71420;-59
2023/07/10 00:11:52;;;;;;;;;;;;;;;;;;4388095;32;68394;-58
2023/07/10 00:14:39;;;;;;;11.13;5.93;;;;;;;;;;4399001;32;67377;-59
2023/07/10 00:17:25;;;;;;;8.43;5.45;;;;;;;;;;4388262;32;60428;-59
2023/07/10 00:20:27;;;;;;;9.35;5.00;;;;;;;;;;4398505;32;70899;-59
2023/07/10 00:23:14;;;;;;;8.52;5.57;;;;;;;;;;4387715;32;68332;-59
2023/07/10 00:26:01;;;;;;;10.48;5.55;;;;;;;;;;4387892;32;67618;-59
2023/07/10 00:28:51;;;;;;;;;;;;;;;;;;4377318;32;71868;-58
2023/07/10 00:31:39;;;;;;;6.97;4.85;;;;;;;;;;4387790;32;65960;-59
2023/07/10 00:34:25;;;;;;;10.77;5.15;;;;;;;;;;4387975;32;68219;-59
2023/07/10 00:37:11;;;;;;;8.40;4.80;;;;;;;;;;4387939;32;60431;-59
2023/07/10 00:39:58;;;;;;;;;;;;;;;;;;4400132;32;71999;-59
2023/07/10 00:42:46;;;;;;;8.07;5.20;;;;;;;;;;4399029;32;66069;-59
2023/07/10 00:45:33;;;;;;;8.93;4.97;;;;;;;;;;4398393;32;67109;-59
2023/07/10 00:48:52;;;;;;;9.48;4.80;;;;;;;;;;4399939;32;60019;-58
2023/07/10 00:52:05;;;;;;;10.93;4.68;;;;;;;;;;4394499;32;70510;-60
2023/07/10 00:54:56;;;;;;;9.80;4.72;;;;;;;;;;4397640;32;70174;-59
2023/07/10 00:57:43;;;;;;;7.68;4.60;;;;;;;;;;4398387;32;66754;-59
2023/07/10 01:00:31;;;;;;;8.65;4.55;;;;;;;;;;4387835;32;71737;-59
2023/07/10 01:03:18;;;;;;;9.65;4.65;;;;;;;;;;4387930;32;66367;-59
2023/07/10 01:06:12;;;;;;;10.80;4.82;;;;;;;;;;4376852;32;69324;-59
2023/07/10 01:09:03;;;;;;;10.18;5.15;;;;;;;;;;4398058;32;66810;-58
2023/07/10 01:11:52;;;;;;;8.73;4.68;;;;;;;;;;4376867;32;70746;-59
2023/07/10 01:14:39;;;;;;;7.25;4.87;;;;;;;;;;4376496;32;66248;-59
2023/07/10 01:17:28;;;;;;;7.62;4.60;;;;;;;;;;4375891;32;67494;-59
2023/07/10 01:20:48;;;;;;;6.85;4.45;;;;;;;;;;4398121;32;60196;-60
2023/07/10 01:23:35;;;;;;;10.60;4.60;;;;;;;;;;4386258;32;71815;-58
2023/07/10 01:26:22;;;;;;;6.78;4.62;;;;;;;;;;4376427;32;68288;-59
2023/07/10 01:29:21;;;;;;;11.85;4.70;;;;;;;;;;4386966;32;67918;-60
2023/07/10 01:32:08;;;;;;;9.15;4.80;;;;;;;;;;4386371;32;60093;-59
2023/07/10 01:34:58;;;;;;;8.18;5.00;;;;;;;;;;4387008;32;70714;-59
2023/07/10 01:37:44;;;;;;;8.50;4.80;;;;;;;;;;4387188;32;69230;-59
2023/07/10 01:40:36;;;;;;;8.52;4.80;;;;;;;;;;4387077;32;66436;-59
2023/07/10 01:43:22;;;;;;;7.62;4.55;;;;;;;;;;4396696;32;71723;-59
2023/07/10 01:46:25;;;;;;;7.78;4.60;;;;;;;;;;4376001;32;65077;-59
2023/07/10 01:49:11;;;;;;;9.85;5.22;;;;;;;;;;4397356;32;67095;-58
2023/07/10 01:51:59;;;;;;;8.60;4.68;;;;;;;;;;4397398;32;60050;-59
2023/07/10 01:54:46;;;;;;;6.40;4.70;;;;;;;;;;4375904;32;69742;-64
2023/07/10 01:57:33;;;;;;;7.93;4.78;;;;;;;;;;4386933;32;65910;-59
2023/07/10 02:00:21;;;;;;;10.25;4.87;;;;;;;;;;4364848;32;68424;-60
2023/07/10 02:03:08;;;;;;;10.60;4.50;;;;;;;;;;4386896;32;60413;-59
2023/07/10 02:05:54;;;;;;;11.57;4.55;;;;;;;;;;4386663;32;70568;-59
2023/07/10 02:08:41;;;;;;;;;;;;;;;;;;4376089;32;68418;-60
2023/07/10 02:11:27;;;;;;;10.23;4.93;;;;;;;;;;4376204;32;67455;-59
2023/07/10 02:14:14;;;;;;;5.80;4.18;;;;;;;;;;4375792;32;71963;-59
2023/07/10 02:17:00;;;;;;;5.60;4.10;;;;;;;;;;4397612;32;65021;-59
2023/07/10 02:19:47;;;;;;;7.20;4.10;;;;;;;;;;4398375;32;69597;-59
2023/07/10 02:22:33;;;;;;;8.90;4.03;;;;;;;;;;4375650;32;67813;-59
2023/07/10 02:25:20;;;;;;;6.65;4.50;;;;;;;;;;4398102;32;71709;-59
2023/07/10 02:28:07;;;;;;;9.43;4.15;;;;;;;;;;4386704;32;65648;-59
2023/07/10 02:30:54;;;;;;;6.85;4.28;;;;;;;;;;4386380;32;66932;-59
2023/07/10 02:33:40;;;;;;;9.63;4.85;;;;;;;;;;4375795;32;59301;-60
2023/07/10 02:36:28;;;;;;;5.93;4.00;;;;;;;;;;4396902;32;69437;-59
2023/07/10 02:39:15;;;;;;;10.82;4.80;;;;;;;;;;4375784;32;68335;-59
2023/07/10 02:42:01;;;;;;;8.10;5.12;;;;;;;;;;4398035;32;66737;-59
2023/07/10 02:44:47;;;;;;;;;;;;;;;;;;4397484;32;58878;-58
2023/07/10 02:47:34;;;;;;;11.33;4.37;;;;;;;;;;4396493;32;69945;-60
2023/07/10 02:50:20;;;;;;;6.10;4.50;;;;;;;;;;4386001;32;69164;-60
2023/07/10 02:53:07;;;;;;;10.15;4.47;;;;;;;;;;4364384;32;67254;-58
2023/07/10 02:55:54;;;;;;;8.93;4.40;;;;;;;;;;4374384;32;72332;-59
2023/07/10 02:58:40;;;;;;;7.37;4.72;;;;;;;;;;4386009;32;65019;-60
2023/07/10 03:01:27;;;;;;;9.10;4.35;;;;;;;;;;4386249;32;68016;-59
2023/07/10 03:04:13;;;;;;;;;;;;;;;;;;4376063;32;59853;-58
2023/07/10 03:06:59;;;;;;;6.57;4.53;;;;;;;;;;4396614;32;69884;-59
2023/07/10 03:09:46;;;;;;;5.40;3.90;;;;;;;;;;4396592;32;65182;-59
2023/07/10 03:12:33;;;;;;;6.53;4.32;;;;;;;;;;4375329;32;67548;-59
2023/07/10 03:15:20;;;;;;;7.30;4.57;;;;;;;;;;4386158;32;59232;-59
2023/07/10 03:18:06;;;;;;;10.43;4.70;;;;;;;;;;4396511;32;70536;-59
2023/07/10 03:20:53;;;;;;;9.82;4.62;;;;;;;;;;4386039;32;68425;-59
2023/07/10 03:23:40;;;;;;;5.87;4.03;;;;;;;;;;4374951;32;68184;-60
2023/07/10 03:26:26;;;;;;;9.45;4.32;;;;;;;;;;4396514;32;70801;-59
2023/07/10 03:29:13;;;;;;;8.07;4.35;;;;;;;;;;4396036;32;66163;-59
2023/07/10 03:32:00;;;;;;;10.10;4.60;;;;;;;;;;4385779;32;68013;-59
2023/07/10 03:34:49;;;;;;;9.85;4.22;;;;;;;;;;4364125;32;68054;-59
2023/07/10 03:37:36;;;;;;;7.50;4.37;;;;;;;;;;4396425;32;70758;-60
2023/07/10 03:40:22;;;;;;;7.70;4.35;;;;;;;;;;4374951;32;65934;-59
2023/07/10 03:43:09;;;;;;;10.70;4.55;;;;;;;;;;4373691;32;67883;-59
2023/07/10 03:45:56;;;;;;;8.40;4.30;;;;;;;;;;4385816;32;60191;-59
2023/07/10 03:48:43;;;;;;;7.10;4.53;;;;;;;;;;4385462;32;69649;-60
2023/07/10 03:51:30;;;;;;;10.40;4.70;;;;;;;;;;4374476;32;70080;-60
2023/07/10 03:54:17;;;;;;;10.95;3.97;;;;;;;;;;4364012;32;68279;-59
2023/07/10 03:57:04;;;;;;;5.70;3.87;;;;;;;;;;4375187;32;71940;-59
2023/07/10 03:59:51;;;;;;;7.32;3.97;;;;;;;;;;4385464;32;70257;-59
2023/07/10 04:02:38;;;;;;;9.82;4.50;;;;;;;;;;4374733;32;68241;-59
2023/07/10 04:05:24;;;;;;;7.25;4.40;;;;;;;;;;4395975;32;66706;-60
2023/07/10 04:08:11;;;;;;;8.98;4.20;;;;;;;;;;4386616;32;71700;-58
2023/07/10 04:11:01;;;;;;;7.50;3.90;;;;;;;;;;4387622;32;63281;-58
2023/07/10 04:13:51;;;;;;;10.77;4.72;;;;;;;;;;4377168;32;68400;-59
2023/07/10 04:16:37;;;;;;;6.45;4.07;;;;;;;;;;4388234;32;58994;-59
2023/07/10 04:19:24;;;;;;;8.45;5.07;;;;;;;;;;4377214;32;70862;-59
2023/07/10 04:22:11;;;;;;;8.57;4.15;;;;;;;;;;4399587;32;68243;-60
2023/07/10 04:25:04;;;;;;;;;;;;;;;;;;4377570;32;67097;-58
2023/07/10 04:27:50;;;;;;;7.62;4.00;;;;;;;;;;4388211;32;59331;-59
2023/07/10 04:30:36;;;;;;;7.45;3.90;;;;;;;;;;4376542;32;69394;-59
2023/07/10 04:33:23;;;;;;;8.10;3.72;;;;;;;;;;4389061;32;69699;-59
2023/07/10 04:36:10;;;;;;;10.10;3.95;;;;;;;;;;4389554;32;66788;-59
2023/07/10 04:38:56;;;;;;;7.03;4.25;;;;;;;;;;4399479;32;71736;-59
2023/07/10 04:41:44;;;;;;;;;;;;;;;;;;4376608;32;65798;-59
2023/07/10 04:44:30;;;;;;;7.95;4.18;;;;;;;;;;4387685;32;68204;-59
2023/07/10 04:47:17;;;;;;;5.18;3.80;;;;;;;;;;4376838;32;67641;-59
2023/07/10 04:50:04;;;;;;;6.10;4.18;;;;;;;;;;4387623;32;71825;-59
2023/07/10 04:52:50;;;;;;;7.68;3.85;;;;;;;;;;4387346;32;65066;-59
2023/07/10 04:55:37;;;;;;;6.47;4.10;;;;;;;;;;4399389;32;66917;-59
2023/07/10 04:58:25;;;;;;;7.50;4.60;;;;;;;;;;4377179;32;60050;-59
2023/07/10 05:01:12;;;;;;;7.45;3.83;;;;;;;;;;4387313;32;69605;-59
2023/07/10 05:03:59;;;;;;;5.40;3.72;;;;;;;;;;4387146;32;69073;-59
2023/07/10 05:06:46;;;;;;;12.10;4.25;;;;;;;;;;4387306;32;67726;-59
2023/07/10 05:09:33;;;;;;;8.07;3.75;;;;;;;;;;4387557;32;70754;-59
2023/07/10 05:12:19;;;;;;;5.95;4.12;;;;;;;;;;4398988;32;70392;-58
2023/07/10 05:15:06;;;;;;;6.03;3.60;;;;;;;;;;4365502;32;69910;-58
2023/07/10 05:17:53;;;;;;;5.45;3.90;;;;;;;;;;4387254;32;67654;-59
2023/07/10 05:20:40;;;;;;;5.80;3.60;;;;;;;;;;4397857;32;70786;-59
2023/07/10 05:23:28;;;;;;;7.37;3.80;;;;;;;;;;4387457;32;65142;-58
2023/07/10 05:26:16;;;;;;;5.35;3.70;;;;;;;;;;4365511;32;68745;-58
2023/07/10 05:29:03;;;;;;;6.97;3.70;;;;;;;;;;4398122;32;60001;-59
2023/07/10 05:31:49;;;;;;;6.22;3.30;;;;;;;;;;4398977;32;70522;-59
2023/07/10 05:34:36;;;;;;;8.02;3.70;;;;;;;;;;4397228;32;69800;-60
2023/07/10 05:37:23;;;;;;;4.80;3.62;;;;;;;;;;4386987;32;67193;-59
2023/07/10 05:40:10;;;;;;;4.43;3.00;;;;;;;;;;4387323;32;60310;-59
2023/07/10 05:42:57;;;;;;;5.15;3.78;;;;;;;;;;4386041;32;70145;-59
2023/07/10 05:45:45;;;;;;;6.25;3.80;;;;;;;;;;4386606;32;69001;-59
2023/07/10 05:48:32;;;;;;;6.35;3.37;;;;;;;;;;4397519;32;66601;-59
2023/07/10 05:51:19;;;;;;;8.18;3.70;;;;;;;;;;4386550;32;70503;-60
2023/07/10 05:54:05;;;;;;;7.10;3.53;;;;;;;;;;4397421;32;66183;-58
2023/07/10 05:56:52;;;;;;;5.75;3.70;;;;;;;;;;4397505;32;67585;-58
2023/07/10 05:59:39;;;;;;;5.68;4.03;;;;;;;;;;4376151;32;60374;-59
2023/07/10 06:02:26;;;;;;;6.93;3.30;;;;;;;;;;4376090;32;71604;-59
2023/07/10 06:05:12;;;;;;;4.37;3.28;;;;;;;;;;4376022;32;65120;-58
2023/07/10 06:07:59;;;;;;;6.05;3.60;;;;;;;;;;4386687;32;67794;-59
2023/07/10 06:10:46;;;;;;;7.00;3.90;;;;;;;;;;4386836;32;59158;-58
2023/07/10 06:13:33;;;;;;;8.77;3.95;;;;;;;;;;4397238;32;70444;-59
2023/07/10 06:16:20;;;;;;;7.78;3.50;;;;;;;;;;4376020;32;68369;-58
2023/07/10 06:19:07;;;;;;;8.25;4.00;;;;;;;;;;4397138;32;66821;-59
2023/07/10 06:22:11;;;;;;;8.05;3.83;;;;;;;;;;4374745;32;72423;-59
2023/07/10 06:24:57;;;;;;;7.25;4.03;;;;;;;;;;4386306;32;65213;-58
2023/07/10 06:27:44;;;;;;;7.20;3.80;;;;;;;;;;4397098;32;68307;-58
2023/07/10 06:30:31;;;;;;;6.60;3.97;;;;;;;;;;4363853;32;64973;-59
2023/07/10 06:33:18;;;;;;;10.25;4.15;;;;;;;;;;4374277;32;71533;-58
2023/07/10 06:36:05;;;;;;;8.05;3.78;;;;;;;;;;4375560;32;65876;-59
2023/07/10 06:38:52;;;;;;;6.10;3.75;;;;;;;;;;4396849;32;67071;-58
2023/07/10 06:41:39;;;;;;;7.35;4.10;;;;;;;;;;4386322;32;60427;-59
2023/07/10 06:44:26;;;;;;;8.20;4.35;;;;;;;;;;4385917;32;70433;-58
2023/07/10 06:47:13;;;;;;;6.32;3.62;;;;;;;;;;4396626;32;69431;-59
2023/07/10 06:50:00;;;;;;;5.30;3.97;;;;;;;;;;4385227;32;68190;-59
2023/07/10 06:52:47;;;;;;;5.45;3.78;;;;;;;;;;4375116;32;61420;-59
2023/07/10 06:55:34;;;;;;;7.85;3.62;;;;;;;;;;4374604;32;71670;-59
2023/07/10 07:00:59;;;;;;;7.05;4.18;;;;;;;;;;3845834;37;43794;-59
2023/07/10 07:03:46;;;;;;;8.00;3.78;;;;;;;;;;4399286;32;60044;-58
2023/07/10 07:06:32;;;;;;;6.70;3.90;;;;;;;;;;4398693;32;70527;-57
2023/07/10 07:09:19;;;;;;;6.10;3.78;;;;;;;;;;4399135;32;69340;-57
2023/07/10 07:12:06;;;;;;;5.70;3.53;;;;;;;;;;4399273;32;67593;-59
2023/07/10 07:14:53;;;;;;;8.23;3.83;;;;;;;;;;4377145;32;72524;-59
2023/07/10 07:17:40;;;;;;;5.50;3.53;;;;;;;;;;4388572;32;66269;-59
2023/07/10 07:20:27;;;;;;;6.37;3.65;;;;;;;;;;4388016;32;67800;-58
2023/07/10 07:23:14;;;;;;;5.25;3.62;;;;;;;;;;4398554;32;59936;-60
2023/07/10 07:26:01;;;;;;;7.68;4.03;;;;;;;;;;4398617;32;71704;-59
2023/07/10 07:28:48;;;;;;;6.75;4.15;;;;;;;;;;4376525;32;67145;-59
2023/07/10 07:31:35;;;;;;;7.20;3.83;;;;;;;;;;4409346;32;66803;-59
2023/07/10 07:34:22;;;;;;;11.52;4.40;;;;;;;;;;4388122;32;59378;-59
2023/07/10 07:37:09;;;;;;;6.70;4.15;;;;;;;;;;4398509;32;70258;-58
2023/07/10 07:39:57;;;;;;;8.30;3.90;;;;;;;;;;4408941;32;68525;-59
2023/07/10 07:42:45;;;;;;;8.40;4.37;;;;;;;;;;4409083;32;67784;-58
2023/07/10 07:45:31;;;;;;;10.45;4.30;;;;;;;;;;4387744;32;71744;-58
2023/07/10 07:48:18;;;;;;;5.37;3.58;;;;;;;;;;4398652;32;66481;-60
2023/07/10 07:51:07;;;;;;;7.72;3.90;;;;;;;;;;4376056;32;68080;-58
2023/07/10 07:54:15;;;;;;;5.90;4.20;;;;;;;;;;4398611;32;67962;-59
2023/07/10 07:57:01;;;;;;;6.72;4.37;;;;;;;;;;4408306;32;72416;-59
2023/07/10 07:59:49;;;;;;;6.20;4.12;;;;;;;;;;4397901;32;65966;-59
2023/07/10 08:02:35;;;;;;;7.00;4.37;;;;;;;;;;4397637;32;67793;-58
2023/07/10 08:05:23;;;;;;;8.00;4.22;;;;;;;;;;4398354;32;59372;-59
2023/07/10 08:08:11;;;;;;;5.43;4.10;;;;;;;;;;4398097;32;69477;-59
2023/07/10 08:10:58;;;;;;;6.18;4.25;;;;;;;;;;4393317;32;68386;-59
2023/07/10 08:13:45;;;;;;;6.93;3.90;;;;;;;;;;4387802;32;67520;-58
2023/07/10 08:16:31;;;;;;;7.68;4.20;;;;;;;;;;4388212;32;60329;-59
2023/07/10 08:19:18;;;;;;;5.82;3.95;;;;;;;;;;4398258;32;70627;-59
2023/07/10 08:22:05;;;;;;;9.35;4.40;;;;;;;;;;4376634;32;70772;-58
2023/07/10 08:24:52;;;;;;;6.18;4.37;;;;;;;;;;4377037;32;67680;-58
2023/07/10 08:27:40;;;;;;;9.88;4.68;;;;;;;;;;4398302;32;72096;-59
2023/07/10 08:30:27;;;;;;;8.10;4.25;;;;;;;;;;4377215;32;65134;-58
2023/07/10 08:33:15;;;;;;;5.12;4.03;;;;;;;;;;4387807;32;66664;-59
2023/07/10 08:36:04;;;;;;;7.00;3.90;;;;;;;;;;4398619;32;60197;-58
2023/07/10 08:38:51;;;;;;;7.62;4.00;;;;;;;;;;4387481;32;70125;-58
2023/07/10 08:41:38;;;;;;;5.03;3.22;;;;;;;;;;4387676;32;65989;-59
2023/07/10 08:44:31;;;;;;;6.47;3.90;;;;;;;;;;4387673;32;67458;-59
2023/07/10 08:47:34;;;;;;;6.00;4.30;;;;;;;;;;4387931;32;59269;-57
2023/07/10 08:50:31;;;;;;;8.73;3.87;;;;;;;;;;4365422;32;71787;-58
2023/07/10 08:53:24;;;;;;;7.28;4.07;;;;;;;;;;4387723;32;68487;-58
2023/07/10 08:56:36;;;;;;;5.68;3.50;;;;;;;;;;4376733;32;68360;-58
2023/07/10 08:59:45;;;;;;;7.95;4.03;;;;;;;;;;4397440;32;71794;-59
2023/07/10 09:03:13;;;;;;;6.47;3.85;;;;;;;;;;4397564;32;66023;-59
2023/07/10 09:06:01;;;;;;;7.43;4.07;;;;;;;;;;4350939;32;65887;-58
2023/07/10 09:08:51;;;;;;;8.05;4.32;;;;;;;;;;4387349;32;66868;-57
2023/07/10 09:11:38;;;;;;;6.95;4.00;;;;;;;;;;4376021;32;71015;-58
2023/07/10 09:14:55;;;;;;;6.97;4.20;;;;;;;;;;4387362;32;66239;-59
2023/07/10 09:17:59;;;;;;;;;;;;;;;;;;4387445;32;67038;-58
2023/07/10 09:20:49;;;;;;;6.20;4.07;;;;;;;;;;4365899;32;58925;-59
2023/07/10 09:23:35;;;;;;;8.40;4.35;;;;;;;;;;4396858;32;70851;-58
2023/07/10 09:26:28;;;;;;;6.70;4.37;;;;;;;;;;4386982;32;68439;-57
2023/07/10 09:29:31;;;;;;;7.47;4.00;;;;;;;;;;4387238;32;67906;-58
2023/07/10 09:32:20;;;;;;;6.22;3.72;;;;;;;;;;4365546;32;57526;-57
2023/07/10 09:35:07;;;;;;;8.15;4.20;;;;;;;;;;4375854;32;69851;-59
2023/07/10 09:37:53;;;;;;;7.28;4.55;;;;;;;;;;4376104;32;69772;-58
2023/07/10 09:40:45;;;;;;;7.22;3.92;;;;;;;;;;4364700;32;67151;-57
2023/07/10 09:43:33;;;;;;;6.95;4.20;;;;;;;;;;4397409;32;70746;-58
2023/07/10 09:46:26;;;;;;;7.30;3.67;;;;;;;;;;4387439;32;65080;-58
2023/07/10 09:49:22;;;;;;;7.68;4.30;;;;;;;;;;4397345;32;67465;-59
2023/07/10 09:52:30;;;;;;;8.30;4.55;;;;;;;;;;4375873;32;62566;-58
2023/07/10 09:55:17;;;;;;;7.32;4.32;;;;;;;;;;4375440;32;69241;-59
2023/07/10 09:58:04;;;;;;;8.10;4.60;;;;;;;;;;4364940;32;65032;-58
2023/07/10 10:00:51;;;;;;;7.90;4.70;;;;;;;;;;4385792;32;67177;-58
2023/07/10 10:03:43;;;;;;;9.43;4.87;;;;;;;;;;4376258;32;60597;-59
2023/07/10 10:06:31;;;;;;;7.25;3.90;;;;;;;;;;4397267;32;69728;-58
2023/07/10 10:09:23;;;;;;;9.00;4.40;;;;;;;;;;4386745;32;69455;-58
2023/07/10 10:12:31;;;;;;;6.90;4.10;;;;;;;;;;4386508;32;67885;-59
2023/07/10 10:15:36;;;;;;;10.75;5.07;;;;;;;;;;4385591;32;71139;-59
2023/07/10 10:18:49;;;;;;;6.47;3.92;;;;;;;;;;4387894;32;66236;-59
2023/07/10 10:21:39;;;;;;;7.93;4.18;;;;;;;;;;4375843;32;67030;-58
2023/07/10 10:24:27;;;;;;;9.80;4.80;;;;;;;;;;4375694;32;67309;-59
2023/07/10 10:27:29;;;;;;;9.27;4.07;;;;;;;;;;4374925;32;72319;-58
2023/07/10 10:30:22;;;;;;;6.65;4.12;;;;;;;;;;4375377;32;63956;-59
2023/07/10 10:33:41;;;;;;;9.88;4.55;;;;;;;;;;4385795;32;68325;-59
2023/07/10 10:36:48;;;;;;;9.43;4.72;;;;;;;;;;4365153;32;60658;-58
2023/07/10 10:39:43;;;;;;;8.60;4.55;;;;;;;;;;4364563;32;70607;-57
2023/07/10 10:42:54;;;;;;;10.80;4.50;;;;;;;;;;4386042;32;68378;-58
2023/07/10 10:45:47;;;;;;;7.75;4.50;;;;;;;;;;4374704;32;68676;-59
2023/07/10 10:48:42;;;;;;;8.15;3.83;;;;;;;;;;4375447;32;72493;-57
2023/07/10 10:52:00;;;;;;;6.57;3.85;;;;;;;;;;4385832;32;70202;-59
2023/07/10 10:55:09;;;;;;;8.15;3.97;;;;;;;;;;4396643;32;69273;-59
2023/07/10 10:58:22;;;;;;;7.70;4.03;;;;;;;;;;4385853;32;67830;-58
2023/07/10 11:01:36;;;;;;;7.70;4.28;;;;;;;;;;4397630;32;71611;-58
2023/07/10 11:04:45;;;;;;;6.50;3.78;;;;;;;;;;4364403;32;65711;-58
2023/07/10 11:07:33;;;;;;;7.05;4.05;;;;;;;;;;4396813;32;67529;-59
2023/07/10 11:10:36;;;;;;;7.72;3.90;;;;;;;;;;4386222;32;59050;-59
2023/07/10 11:13:34;;;;;;;9.57;4.12;;;;;;;;;;4396629;32;69759;-58
2023/07/10 11:16:20;;;;;;;6.20;4.05;;;;;;;;;;4385220;32;68479;-58
2023/07/10 11:19:12;;;;;;;6.78;3.92;;;;;;;;;;4385429;32;68216;-58
2023/07/10 11:22:31;;;;;;;10.50;4.72;;;;;;;;;;4374610;32;59053;-59
2023/07/10 11:25:31;;;;;;;8.40;3.72;;;;;;;;;;4385834;32;69711;-58
2023/07/10 11:28:26;;;;;;;8.07;3.90;;;;;;;;;;4385811;32;69036;-59
2023/07/10 11:31:23;;;;;;;10.70;5.03;;;;;;;;;;4396335;32;67624;-59
2023/07/10 11:34:34;;;;;;;7.62;3.90;;;;;;;;;;4396472;32;71569;-58
2023/07/10 11:37:49;;;;;;;8.70;4.22;;;;;;;;;;4396333;32;66009;-58
2023/07/10 11:40:42;;;;;;;7.87;3.97;;;;;;;;;;4379622;32;66574;-58
2023/07/10 11:43:29;;;;;;;9.30;4.12;;;;;;;;;;4375275;32;59233;-59
2023/07/10 11:46:23;;;;;;;8.85;4.22;;;;;;;;;;4397390;32;71814;-58
2023/07/10 11:49:13;;;;;;;6.68;3.70;;;;;;;;;;4377465;32;63996;-59
2023/07/10 11:52:09;;;;;;;7.72;3.50;;;;;;;;;;4387929;32;67931;-60
2023/07/10 11:55:00;;;;;;;8.47;3.97;;;;;;;;;;4377022;32;59776;-58
2023/07/10 11:58:30;;;;;;;5.53;3.40;;;;;;;;;;4398805;32;70495;-59
2023/07/10 12:01:21;;;;;;;7.37;3.58;;;;;;;;;;4398466;32;68712;-59
2023/07/10 12:04:15;;;;;;;6.50;3.60;;;;;;;;;;4398859;32;66828;-58
2023/07/10 12:07:01;;;;;;;8.77;4.87;;;;;;;;;;4387663;32;72386;-58
2023/07/10 12:10:11;;;;;;;8.85;3.47;;;;;;;;;;4387960;32;69481;-59
2023/07/10 12:12:59;;;;;;;9.57;3.78;;;;;;;;;;4387851;32;69541;-58
2023/07/10 12:15:47;;;;;;;7.35;3.65;;;;;;;;;;4387884;32;67995;-59
2023/07/10 12:18:37;;;;;;;8.70;3.70;;;;;;;;;;4376896;32;72078;-59
2023/07/10 12:21:24;;;;;;;7.72;4.18;;;;;;;;;;4366148;32;65568;-58
2023/07/10 12:24:14;;;;;;;8.30;3.95;;;;;;;;;;4387282;32;67526;-58
2023/07/10 12:27:02;;;;;;;11.65;3.80;;;;;;;;;;4388037;32;60091;-59
2023/07/10 12:29:49;;;;;;;6.72;3.70;;;;;;;;;;4386838;32;71979;-59
2023/07/10 12:32:35;;;;;;;7.37;3.60;;;;;;;;;;4398415;32;68347;-59
2023/07/10 12:35:42;;;;;;;10.90;3.87;;;;;;;;;;4387327;32;68569;-58
2023/07/10 12:38:29;;;;;;;;;;;;;;;;;;4399001;32;59317;-58
2023/07/10 12:41:19;;;;;;;7.05;4.30;;;;;;;;;;4387728;32;70326;-58
2023/07/10 12:44:06;;;;;;;7.40;3.87;;;;;;;;;;4386586;32;69423;-58
2023/07/10 12:47:07;;;;;;;7.05;3.78;;;;;;;;;;4387572;32;66621;-58
2023/07/10 12:49:56;;;;;;;8.88;3.58;;;;;;;;;;4386655;32;71482;-58
2023/07/10 12:52:43;;;;;;;10.93;3.85;;;;;;;;;;4376457;32;66215;-58
2023/07/10 12:55:32;;;;;;;7.97;3.80;;;;;;;;;;4387628;32;67448;-59
2023/07/10 12:58:19;;;;;;;6.80;3.55;;;;;;;;;;4376417;32;59780;-59
2023/07/10 13:01:24;;;;;;;5.82;3.53;;;;;;;;;;4376544;32;70753;-59
2023/07/10 13:04:22;;;;;;;8.70;3.62;;;;;;;;;;4398206;32;64908;-59
2023/07/10 13:07:19;;;;;;;11.60;3.72;;;;;;;;;;4397949;32;68225;-57
2023/07/10 13:10:22;;;;;;;;;;;;;;;;;;4377416;32;60666;-58
2023/07/10 13:13:18;;;;;;;11.27;4.10;;;;;;;;;;4398103;32;69121;-58
2023/07/10 13:16:06;;;;;;;;;;;;;;;;;;4398802;32;68524;-57
2023/07/10 13:18:53;;;;;;;8.80;3.42;;;;;;;;;;4375991;32;68492;-59
2023/07/10 13:21:39;;;;;;;7.57;3.75;;;;;;;;;;4386935;32;71731;-59
2023/07/10 13:24:26;;;;;;;7.40;3.55;;;;;;;;;;4386975;32;65970;-57
2023/07/10 13:27:17;;;;;;;9.35;3.70;;;;;;;;;;4387133;32;69542;-58
2023/07/10 13:30:05;;;;;;;7.45;4.22;;;;;;;;;;4364995;32;67291;-59
2023/07/10 13:32:51;;;;;;;9.98;3.65;;;;;;;;;;4386474;32;71375;-58
2023/07/10 13:35:38;;;;;;;10.50;3.90;;;;;;;;;;4386413;32;66823;-58
2023/07/10 13:38:25;;;;;;;9.98;4.03;;;;;;;;;;4365000;32;66354;-58
2023/07/10 13:41:15;;;;;;;10.35;3.90;;;;;;;;;;4397905;32;60428;-59
2023/07/10 13:44:02;;;;;;;11.18;3.72;;;;;;;;;;4376207;32;70800;-58
2023/07/10 13:46:49;;;;;;;6.03;3.80;;;;;;;;;;4376145;32;69010;-58
2023/07/10 13:49:36;;;;;;;10.93;4.72;;;;;;;;;;4364807;32;69008;-59
2023/07/10 13:52:24;;;;;;;7.87;4.10;;;;;;;;;;4386924;32;60212;-59
2023/07/10 13:55:13;;;;;;;7.65;3.83;;;;;;;;;;4386611;32;70324;-58
2023/07/10 13:58:00;;;;;;;7.45;4.35;;;;;;;;;;4376018;32;69308;-58
2023/07/10 14:00:48;;;;;;;9.70;4.00;;;;;;;;;;4375678;32;67024;-58
2023/07/10 14:03:37;;;;;;;9.73;5.05;;;;;;;;;;4386414;32;70736;-59
2023/07/10 14:06:23;;;;;;;7.75;4.28;;;;;;;;;;4376034;32;66804;-58
2023/07/10 14:09:17;;;;;;;9.88;4.93;;;;;;;;;;4398128;32;66806;-58
2023/07/10 14:12:03;;;;;;;13.05;4.85;;;;;;;;;;4375856;32;59949;-59
2023/07/10 14:14:50;;;;;;;9.40;3.92;;;;;;;;;;4375617;32;70962;-59
2023/07/10 14:17:37;;;;;;;7.53;4.65;;;;;;;;;;4397324;32;64536;-59
2023/07/10 14:20:24;;;;;;;6.25;4.32;;;;;;;;;;4397424;32;68102;-59
2023/07/10 14:23:18;;;;;;;12.57;4.40;;;;;;;;;;4375547;32;59396;-58
2023/07/10 14:26:22;;;;;;;11.77;6.75;;;;;;;;;;4364596;32;70929;-59
2023/07/10 14:29:14;;;;;;;6.82;4.43;;;;;;;;;;4386269;32;69608;-58
2023/07/10 14:32:01;;;;;;;6.75;4.35;;;;;;;;;;4375778;32;66887;-58
2023/07/10 14:34:48;;;;;;;12.00;4.78;;;;;;;;;;4364579;32;71278;-58
2023/07/10 14:37:35;;;;;;;8.38;4.32;;;;;;;;;;4386640;32;65716;-58
2023/07/10 14:40:23;;;;;;;13.20;4.25;;;;;;;;;;4375667;32;69230;-58
2023/07/10 14:43:13;;;;;;;10.45;4.40;;;;;;;;;;4375613;32;67545;-58
2023/07/10 14:46:00;;;;;;;9.57;4.70;;;;;;;;;;4374886;32;72484;-59
2023/07/10 14:48:47;;;;;;;8.73;4.82;;;;;;;;;;4385832;32;67112;-58
2023/07/10 14:51:33;;;;;;;11.38;4.53;;;;;;;;;;4374910;32;67431;-58
2023/07/10 14:54:20;;;;;;;12.48;5.12;;;;;;;;;;4397192;32;60353;-58
2023/07/10 14:57:18;;;;;;;11.00;4.65;;;;;;;;;;4375335;32;70193;-59
2023/07/10 15:00:12;;;;;;;8.65;4.43;;;;;;;;;;4396329;32;68458;-58
2023/07/10 15:02:58;;;;;;;10.18;4.57;;;;;;;;;;4375433;32;67557;-59
2023/07/10 15:05:54;;;;;;;13.60;4.68;;;;;;;;;;4386248;32;60482;-62
2023/07/10 15:08:41;;;;;;;8.80;5.10;;;;;;;;;;4396504;32;69536;-59
2023/07/10 15:11:27;;;;;;;8.57;5.12;;;;;;;;;;4396818;32;68366;-57
2023/07/10 15:14:14;;;;;;;7.90;4.37;;;;;;;;;;4385893;32;67724;-58
2023/07/10 15:17:02;;;;;;;7.20;4.65;;;;;;;;;;4385885;32;71805;-59
2023/07/10 15:19:49;;;;;;;8.82;5.10;;;;;;;;;;4386165;32;65096;-59
2023/07/10 15:22:36;;;;;;;8.50;4.47;;;;;;;;;;4387780;32;68520;-59
2023/07/10 15:25:24;;;;;;;11.18;4.47;;;;;;;;;;4388896;32;60127;-58
2023/07/10 15:28:11;;;;;;;9.07;4.53;;;;;;;;;;4399144;32;70097;-59
2023/07/10 15:31:00;;;;;;;10.90;4.70;;;;;;;;;;4399261;32;65932;-58
2023/07/10 15:33:47;;;;;;;11.23;5.25;;;;;;;;;;4399257;32;67844;-58
2023/07/10 15:36:33;;;;;;;9.05;4.45;;;;;;;;;;4378135;32;60019;-58
2023/07/10 15:39:20;;;;;;;12.55;5.53;;;;;;;;;;4377708;32;70841;-58
2023/07/10 15:42:09;;;;;;;10.45;4.60;;;;;;;;;;4387748;32;68941;-57
2023/07/10 15:44:56;;;;;;;9.85;4.97;;;;;;;;;;4388447;32;67688;-59
2023/07/10 15:47:46;;;;;;;9.73;4.60;;;;;;;;;;4388177;32;70803;-59
2023/07/10 15:50:33;;;;;;;11.10;5.20;;;;;;;;;;4388608;32;66024;-58
2023/07/10 15:53:25;;;;;;;9.90;5.00;;;;;;;;;;4387895;32;68886;-58
2023/07/10 15:56:12;;;;;;;13.45;5.72;;;;;;;;;;4398959;32;66718;-58
2023/07/10 15:58:58;;;;;;;15.20;4.95;;;;;;;;;;4400060;32;71632;-57
2023/07/10 16:01:47;;;;;;;15.15;6.07;;;;;;;;;;4398877;32;64911;-58
2023/07/10 16:04:34;;;;;;;10.15;4.97;;;;;;;;;;4388433;32;67799;-58
2023/07/10 16:07:20;;;;;;;10.35;5.70;;;;;;;;;;4377838;32;60062;-58
2023/07/10 16:10:13;;;;;;;12.85;5.50;;;;;;;;;;4377402;32;70570;-58
2023/07/10 16:12:59;;;;;;;11.00;4.85;;;;;;;;;;4377281;32;69308;-58
2023/07/10 16:15:47;;;;;;;8.85;4.07;;;;;;;;;;4398567;32;67592;-58
2023/07/10 16:18:35;;;;;;;13.52;4.87;;;;;;;;;;4388129;32;71610;-58
2023/07/10 16:21:25;;;;;;;8.88;4.30;;;;;;;;;;4387816;32;69652;-58
2023/07/10 16:24:14;;;;;;;9.98;4.43;;;;;;;;;;4377059;32;70016;-58
2023/07/10 16:27:01;;;;;;;8.45;4.28;;;;;;;;;;4387666;32;68031;-58
2023/07/10 16:29:48;;;;;;;11.20;4.62;;;;;;;;;;4387706;32;71698;-57
2023/07/10 16:32:35;;;;;;;12.25;4.60;;;;;;;;;;4377121;32;65728;-58
2023/07/10 16:35:24;;;;;;;10.73;5.10;;;;;;;;;;4387749;32;68166;-59
2023/07/10 16:38:13;;;;;;;10.10;4.57;;;;;;;;;;4387967;32;60376;-58
2023/07/10 16:40:59;;;;;;;13.55;4.68;;;;;;;;;;4398410;32;70146;-59
2023/07/10 16:43:46;;;;;;;8.43;5.00;;;;;;;;;;4398195;32;69342;-58
2023/07/10 16:46:33;;;;;;;12.48;5.05;;;;;;;;;;4377097;32;68263;-58
2023/07/10 16:49:20;;;;;;;13.70;5.45;;;;;;;;;;4376733;32;61019;-58
2023/07/10 16:52:10;;;;;;;9.30;4.75;;;;;;;;;;4376589;32;70455;-58
2023/07/10 16:54:57;;;;;;;12.25;4.30;;;;;;;;;;4376089;32;69848;-60
2023/07/10 16:57:44;;;;;;;12.40;4.43;;;;;;;;;;4387554;32;67863;-59
2023/07/10 17:00:30;;;;;;;10.65;4.68;;;;;;;;;;4397640;32;71784;-58
2023/07/10 17:03:20;;;;;;;9.65;4.93;;;;;;;;;;4399319;32;65757;-59